Time;durP1;ratioP1;P1;durP2;ratioP2;P2;SDS_P1;SDS_P2;PMS_P1;PMS_P2;Temp;Humidity;BMP_temperature;BMP_pressure;BME280_temperature;BME280_humidity;BME280_pressure;Samples;Min_cycle;Max_cycle;Signal;HPM_P1;HPM_P2
2023/05/28 00:00:19;;;;;;;1.38;1.27;;;17.80;99.90;;;;;;5033896;28;20229;-63
2023/05/28 00:02:47;;;;;;;2.92;1.65;;;17.80;99.90;;;;;;5037096;28;20664;-63
2023/05/28 00:05:14;;;;;;;1.50;1.40;;;17.70;99.90;;;;;;5040115;28;20215;-62
2023/05/28 00:07:41;;;;;;;1.40;1.30;;;17.70;99.90;;;;;;5041050;28;20723;-63
2023/05/28 00:10:09;;;;;;;1.38;1.38;;;17.70;99.90;;;;;;5040574;28;20263;-61
2023/05/28 00:12:36;;;;;;;1.48;1.38;;;17.60;99.90;;;;;;5040948;28;20208;-61
2023/05/28 00:15:03;;;;;;;1.50;1.40;;;17.60;99.90;;;;;;5032357;28;20300;-61
2023/05/28 00:17:30;;;;;;;1.35;1.25;;;17.60;99.90;;;;;;5031335;28;20260;-63
2023/05/28 00:19:58;;;;;;;1.40;1.30;;;17.60;99.90;;;;;;5030562;28;20224;-61
2023/05/28 00:22:25;;;;;;;1.40;1.30;;;17.60;99.90;;;;;;5031641;28;20291;-61
2023/05/28 00:25:04;;;;;;;1.40;1.30;;;17.60;99.90;;;;;;5029900;28;20258;-66
2023/05/28 00:27:37;;;;;;;1.50;1.40;;;17.50;99.90;;;;;;5025061;28;20266;-61
2023/05/28 00:30:08;;;;;;;1.60;1.50;;;17.50;99.90;;;;;;5029787;28;20225;-63
2023/05/28 00:32:38;;;;;;;1.40;1.30;;;17.50;99.90;;;;;;5030828;28;20213;-61
2023/05/28 00:35:07;;;;;;;1.65;1.55;;;17.50;99.90;;;;;;5031136;28;20216;-60
2023/05/28 00:37:35;;;;;;;1.10;1.10;;;17.50;99.90;;;;;;5030296;28;20228;-62
2023/05/28 00:40:07;;;;;;;1.27;1.17;;;17.50;99.90;;;;;;5029655;28;20271;-61
2023/05/28 00:42:36;;;;;;;1.50;1.40;;;17.40;99.90;;;;;;5030555;28;20291;-61
2023/05/28 00:45:06;;;;;;;1.10;1.10;;;17.40;99.90;;;;;;5030103;28;20211;-63
2023/05/28 00:47:35;;;;;;;1.40;1.30;;;17.30;99.90;;;;;;5030412;28;20181;-63
2023/05/28 00:50:03;;;;;;;1.50;1.40;;;17.30;99.90;;;;;;5029355;28;20643;-61
2023/05/28 00:52:36;;;;;;;1.67;1.58;;;17.20;99.90;;;;;;5030657;28;20211;-63
2023/05/28 00:55:10;;;;;;;1.50;1.40;;;17.20;99.90;;;;;;5030201;28;20189;-62
2023/05/28 00:57:40;;;;;;;1.35;1.35;;;17.20;99.90;;;;;;5030526;28;20209;-62
2023/05/28 01:00:09;;;;;;;1.60;1.50;;;17.20;99.90;;;;;;5033366;28;20334;-62
2023/05/28 01:02:38;;;;;;;1.50;1.40;;;17.20;99.90;;;;;;5031619;28;20197;-60
2023/05/28 01:05:11;;;;;;;1.53;1.43;;;17.20;99.90;;;;;;5030550;28;20342;-62
2023/05/28 01:07:41;;;;;;;1.50;1.40;;;17.20;99.90;;;;;;5030453;28;20689;-61
2023/05/28 01:10:09;;;;;;;1.48;1.38;;;17.10;99.90;;;;;;5029935;28;20268;-62
2023/05/28 01:12:43;;;;;;;1.40;1.30;;;17.10;99.90;;;;;;5030345;28;20201;-62
2023/05/28 01:15:16;;;;;;;1.50;1.40;;;17.10;99.90;;;;;;5029970;28;20295;-62
2023/05/28 01:17:45;;;;;;;1.50;1.40;;;17.10;99.90;;;;;;5030242;28;20233;-61
2023/05/28 01:20:15;;;;;;;1.50;1.40;;;17.00;99.90;;;;;;5032722;28;20228;-62
2023/05/28 01:22:51;;;;;;;1.40;1.40;;;16.80;99.90;;;;;;5033655;28;20208;-62
2023/05/28 01:25:22;;;;;;;1.50;1.40;;;16.70;99.90;;;;;;5039789;28;20326;-61
2023/05/28 01:27:54;;;;;;;1.70;1.60;;;16.60;99.90;;;;;;5053672;28;20322;-61
2023/05/28 01:30:21;;;;;;;1.60;1.50;;;16.60;99.90;;;;;;5047299;28;20239;-63
2023/05/28 01:32:48;;;;;;;1.80;1.70;;;16.50;99.90;;;;;;5054890;28;20208;-62
2023/05/28 01:35:22;;;;;;;1.58;1.50;;;16.50;99.90;;;;;;5064668;28;20210;-61
2023/05/28 01:37:57;;;;;;;1.63;1.52;;;16.40;99.90;;;;;;5066164;28;20295;-61
2023/05/28 01:40:29;;;;;;;1.70;1.60;;;16.40;99.90;;;;;;5054980;28;20227;-62
2023/05/28 01:42:57;;;;;;;1.80;1.70;;;16.30;99.90;;;;;;5057250;28;20188;-61
2023/05/28 01:45:32;;;;;;;1.58;1.48;;;16.30;99.90;;;;;;5060569;28;20208;-63
2023/05/28 01:47:59;;;;;;;1.30;1.30;;;16.30;99.90;;;;;;5060279;28;20245;-62
2023/05/28 01:50:27;;;;;;;1.27;1.27;;;16.20;99.90;;;;;;5060807;28;20224;-63
2023/05/28 01:52:54;;;;;;;1.60;1.50;;;16.20;99.90;;;;;;5058868;28;20207;-62
2023/05/28 01:55:21;;;;;;;1.48;1.38;;;16.20;99.90;;;;;;5062197;28;20279;-62
2023/05/28 01:57:49;;;;;;;1.52;1.42;;;16.20;99.90;;;;;;5062317;28;20283;-62
2023/05/28 02:00:16;;;;;;;1.60;1.50;;;16.30;99.90;;;;;;5053667;28;20224;-62
2023/05/28 02:02:43;;;;;;;1.30;1.30;;;16.20;99.90;;;;;;5054630;28;20204;-62
2023/05/28 02:05:10;;;;;;;1.73;1.63;;;16.10;99.90;;;;;;5053243;28;20208;-62
2023/05/28 02:07:37;;;;;;;1.73;1.63;;;16.00;99.90;;;;;;5055505;28;20642;-61
2023/05/28 02:10:05;;;;;;;1.65;1.50;;;15.80;99.90;;;;;;5051222;28;20220;-61
2023/05/28 02:12:32;;;;;;;1.48;1.38;;;15.80;99.90;;;;;;5051330;28;20208;-61
2023/05/28 02:15:00;;;;;;;1.33;1.23;;;15.70;99.90;;;;;;5052520;28;20207;-62
2023/05/28 02:17:27;;;;;;;1.60;1.50;;;15.70;99.90;;;;;;5052371;28;20315;-62
2023/05/28 02:19:54;;;;;;;1.70;1.60;;;15.70;99.90;;;;;;5051781;28;20220;-62
2023/05/28 02:22:21;;;;;;;1.55;1.45;;;15.70;99.90;;;;;;5053467;28;20674;-62
2023/05/28 02:24:49;;;;;;;1.40;1.30;;;15.60;99.90;;;;;;5052169;28;20220;-62
2023/05/28 02:27:16;;;;;;;1.55;1.45;;;15.60;99.90;;;;;;5051244;28;20294;-62
2023/05/28 02:29:43;;;;;;;2.05;1.38;;;15.60;99.90;;;;;;5049951;28;20224;-63
2023/05/28 02:32:12;;;;;;;1.50;1.40;;;15.70;99.90;;;;;;5050843;28;20204;-63
2023/05/28 02:34:39;;;;;;;1.48;1.38;;;15.70;99.90;;;;;;5051362;28;20204;-62
2023/05/28 02:37:06;;;;;;;1.58;1.48;;;15.60;99.90;;;;;;5050611;28;20638;-63
2023/05/28 02:39:33;;;;;;;1.55;1.45;;;15.60;99.90;;;;;;5052526;28;20224;-62
2023/05/28 02:42:00;;;;;;;2.20;1.40;;;15.50;99.90;;;;;;5053284;28;20204;-62
2023/05/28 02:44:27;;;;;;;1.52;1.42;;;15.50;99.90;;;;;;5052940;28;20248;-61
2023/05/28 02:46:54;;;;;;;1.50;1.40;;;15.40;99.90;;;;;;5052276;28;20208;-62
2023/05/28 02:49:22;;;;;;;1.60;1.50;;;15.40;99.90;;;;;;5055345;28;20281;-61
2023/05/28 02:51:49;;;;;;;1.35;1.30;;;15.40;99.90;;;;;;5059069;28;20200;-62
2023/05/28 02:54:16;;;;;;;1.40;1.30;;;15.30;99.90;;;;;;5054289;28;20298;-61
2023/05/28 02:56:43;;;;;;;1.37;1.30;;;15.30;99.90;;;;;;5051628;28;20234;-63
2023/05/28 02:59:10;;;;;;;1.40;1.30;;;15.30;99.90;;;;;;5051150;28;20232;-63
2023/05/28 03:01:36;;;;;;;1.80;1.70;;;15.40;99.90;;;;;;5051702;28;20208;-61
2023/05/28 03:04:03;;;;;;;1.50;1.40;;;15.30;99.90;;;;;;5051211;28;20675;-60
2023/05/28 03:06:33;;;;;;;1.50;1.40;;;15.30;99.90;;;;;;5051552;28;20199;-62
2023/05/28 03:08:59;;;;;;;1.45;1.35;;;15.30;99.90;;;;;;5052169;28;20262;-62
2023/05/28 03:11:26;;;;;;;1.55;1.45;;;15.30;99.90;;;;;;5051132;28;20212;-61
2023/05/28 03:13:53;;;;;;;1.70;1.60;;;15.20;99.90;;;;;;5051348;28;20203;-61
2023/05/28 03:16:20;;;;;;;1.10;1.10;;;15.20;99.90;;;;;;5051200;28;20306;-61
2023/05/28 03:18:47;;;;;;;1.60;1.50;;;15.10;99.90;;;;;;5051188;28;20327;-61
2023/05/28 03:21:13;;;;;;;1.60;1.50;;;15.10;99.90;;;;;;5050532;28;20204;-63
2023/05/28 03:23:42;;;;;;;1.37;1.37;;;15.00;99.90;;;;;;5051336;28;20306;-63
2023/05/28 03:26:08;;;;;;;1.37;1.27;;;15.00;99.90;;;;;;5050654;28;20678;-63
2023/05/28 03:28:35;;;;;;;1.57;1.47;;;15.00;99.90;;;;;;5051229;28;20715;-63
2023/05/28 03:31:03;;;;;;;1.73;1.60;;;15.10;99.90;;;;;;5050549;28;20302;-62
2023/05/28 03:33:30;;;;;;;1.67;1.57;;;15.20;99.90;;;;;;5050972;28;20285;-61
2023/05/28 03:35:57;;;;;;;1.60;1.50;;;15.10;99.90;;;;;;5050894;28;20214;-61
2023/05/28 03:38:24;;;;;;;1.37;1.37;;;15.10;99.90;;;;;;5051200;28;20228;-62
2023/05/28 03:40:52;;;;;;;1.60;1.50;;;15.10;99.90;;;;;;5050016;28;20204;-63
2023/05/28 03:43:19;;;;;;;1.60;1.50;;;15.20;99.90;;;;;;5052106;28;20230;-62
2023/05/28 03:45:46;;;;;;;1.30;1.30;;;15.20;99.90;;;;;;5052638;28;20761;-61
2023/05/28 03:48:12;;;;;;;1.40;1.30;;;15.20;99.90;;;;;;5050480;28;20741;-61
2023/05/28 03:50:39;;;;;;;1.42;1.33;;;15.10;99.90;;;;;;5050005;28;20236;-63
2023/05/28 03:53:07;;;;;;;1.50;1.40;;;15.10;99.90;;;;;;5050433;28;20208;-62
2023/05/28 03:55:35;;;;;;;1.50;1.40;;;15.10;99.90;;;;;;5050145;28;20207;-61
2023/05/28 03:58:03;;;;;;;1.63;1.52;;;15.00;99.90;;;;;;5050741;28;20220;-61
2023/05/28 04:00:30;;;;;;;1.75;1.65;;;15.00;99.90;;;;;;5049779;28;20596;-63
2023/05/28 04:02:57;;;;;;;1.33;1.33;;;14.90;99.90;;;;;;5050333;28;20688;-63
2023/05/28 04:05:24;;;;;;;1.30;1.30;;;14.90;99.90;;;;;;5050366;28;20290;-63
2023/05/28 04:07:51;;;;;;;1.20;1.20;;;14.90;99.90;;;;;;5050467;28;20200;-62
2023/05/28 04:10:18;;;;;;;1.20;1.20;;;14.90;99.90;;;;;;5049390;28;20256;-62
2023/05/28 04:12:45;;;;;;;1.50;1.40;;;15.00;99.90;;;;;;5050634;28;20207;-64
2023/05/28 04:15:13;;;;;;;1.42;1.40;;;15.10;99.90;;;;;;5050197;28;20688;-61
2023/05/28 04:17:40;;;;;;;1.52;1.42;;;15.00;99.90;;;;;;5052603;28;20313;-64
2023/05/28 04:20:09;;;;;;;1.60;1.50;;;14.90;99.90;;;;;;5051222;28;20754;-62
2023/05/28 04:22:36;;;;;;;1.70;1.60;;;14.90;99.90;;;;;;5050812;28;20215;-62
2023/05/28 04:25:03;;;;;;;1.65;1.55;;;14.90;99.90;;;;;;5050759;28;20211;-62
2023/05/28 04:27:30;;;;;;;1.58;1.48;;;14.80;99.90;;;;;;5051106;28;20212;-63
2023/05/28 04:29:57;;;;;;;1.60;1.50;;;14.70;99.90;;;;;;5050524;28;20326;-62
2023/05/28 04:32:27;;;;;;;1.73;1.63;;;14.60;99.90;;;;;;5056901;28;20207;-61
2023/05/28 04:34:54;;;;;;;1.45;1.42;;;14.50;99.90;;;;;;5054631;28;20258;-62
2023/05/28 04:37:21;;;;;;;1.60;1.50;;;14.40;99.90;;;;;;5052778;28;20216;-63
2023/05/28 04:39:48;;;;;;;1.50;1.40;;;14.40;99.90;;;;;;5052635;28;20239;-62
2023/05/28 04:42:16;;;;;;;1.70;1.60;;;14.30;99.90;;;;;;5051606;28;20244;-60
2023/05/28 04:44:43;;;;;;;1.70;1.60;;;14.40;99.90;;;;;;5056283;28;20204;-60
2023/05/28 04:47:11;;;;;;;1.83;1.73;;;14.40;99.90;;;;;;5054745;28;20306;-63
2023/05/28 04:49:40;;;;;;;1.60;1.50;;;14.40;99.90;;;;;;5050573;28;20239;-60
2023/05/28 04:52:08;;;;;;;1.40;1.30;;;14.40;99.90;;;;;;5051847;28;20212;-62
2023/05/28 04:54:35;;;;;;;1.50;1.40;;;14.50;99.90;;;;;;5064416;28;20268;-60
2023/05/28 04:57:04;;;;;;;1.60;1.50;;;14.60;99.90;;;;;;5064186;28;20192;-62
2023/05/28 04:59:31;;;;;;;1.20;1.20;;;14.60;99.90;;;;;;5053889;28;20223;-61
2023/05/28 05:01:58;;;;;;;1.42;1.38;;;14.80;99.90;;;;;;5054016;28;20208;-60
2023/05/28 05:04:25;;;;;;;1.58;1.48;;;14.90;99.90;;;;;;5053806;28;20210;-61
2023/05/28 05:06:53;;;;;;;1.50;1.40;;;15.10;99.90;;;;;;5054048;28;20204;-61
2023/05/28 05:09:20;;;;;;;1.30;1.30;;;15.10;99.90;;;;;;5054419;28;20235;-61
2023/05/28 05:11:47;;;;;;;1.70;1.60;;;15.10;99.90;;;;;;5053792;28;20584;-61
2023/05/28 05:14:14;;;;;;;1.77;1.67;;;15.20;99.90;;;;;;5054451;28;20290;-61
2023/05/28 05:16:41;;;;;;;1.60;1.50;;;15.30;99.90;;;;;;5055834;28;20273;-61
2023/05/28 05:19:08;;;;;;;1.60;1.50;;;15.50;99.90;;;;;;5053966;28;20674;-61
2023/05/28 05:21:35;;;;;;;1.67;1.58;;;15.60;99.90;;;;;;5055543;28;20215;-63
2023/05/28 05:24:04;;;;;;;1.52;1.45;;;15.80;99.90;;;;;;5054788;28;20227;-61
2023/05/28 05:26:30;;;;;;;1.48;1.40;;;16.00;99.90;;;;;;5032702;28;20213;-61
2023/05/28 05:28:57;;;;;;;1.77;1.67;;;16.30;99.90;;;;;;5033795;28;20283;-60
2023/05/28 05:31:24;;;;;;;1.73;1.63;;;16.50;99.90;;;;;;5032761;28;20203;-61
2023/05/28 05:33:52;;;;;;;1.40;1.30;;;16.70;99.90;;;;;;5034552;28;20211;-62
2023/05/28 05:36:18;;;;;;;1.25;1.25;;;16.90;99.90;;;;;;5034958;28;20208;-62
2023/05/28 05:38:45;;;;;;;1.70;1.60;;;17.10;99.90;;;;;;5033834;28;20320;-60
2023/05/28 05:41:13;;;;;;;1.60;1.50;;;17.20;99.90;;;;;;5033418;28;20738;-60
2023/05/28 05:43:40;;;;;;;1.52;1.42;;;17.30;99.90;;;;;;5034493;28;20208;-60
2023/05/28 05:46:07;;;;;;;1.50;1.40;;;17.40;99.90;;;;;;5033412;28;20598;-61
2023/05/28 05:48:34;;;;;;;1.70;1.60;;;17.50;99.90;;;;;;5031251;28;20534;-61
2023/05/28 05:51:02;;;;;;;1.70;1.60;;;17.60;99.90;;;;;;5033288;28;20307;-61
2023/05/28 05:53:29;;;;;;;2.40;1.92;;;17.60;99.90;;;;;;5034533;28;20304;-61
2023/05/28 05:55:56;;;;;;;1.92;1.83;;;17.60;99.90;;;;;;5033480;28;20200;-61
2023/05/28 05:58:25;;;;;;;1.90;1.80;;;17.50;99.90;;;;;;5034959;28;20216;-61
2023/05/28 06:00:52;;;;;;;2.10;1.90;;;17.40;99.90;;;;;;5031263;28;20232;-61
2023/05/28 06:03:19;;;;;;;1.70;1.60;;;17.40;99.90;;;;;;5033448;28;20201;-63
2023/05/28 06:05:46;;;;;;;1.73;1.63;;;17.50;99.90;;;;;;5031192;28;20215;-63
2023/05/28 06:08:13;;;;;;;1.80;1.67;;;17.60;99.90;;;;;;5031726;28;20296;-61
2023/05/28 06:10:40;;;;;;;1.98;1.88;;;17.60;99.90;;;;;;5031280;28;20793;-62
2023/05/28 06:13:07;;;;;;;1.63;1.52;;;17.60;99.90;;;;;;5032634;28;20200;-61
2023/05/28 06:15:36;;;;;;;1.80;1.70;;;17.80;99.90;;;;;;5034331;28;20237;-62
2023/05/28 06:18:04;;;;;;;1.70;1.60;;;17.90;99.90;;;;;;5033158;28;20230;-62
2023/05/28 06:20:31;;;;;;;1.60;1.50;;;18.00;99.90;;;;;;5032655;28;20232;-61
2023/05/28 06:22:58;;;;;;;1.77;1.67;;;18.30;99.90;;;;;;5033514;28;20201;-61
2023/05/28 06:25:25;;;;;;;1.70;1.60;;;18.40;99.90;;;;;;5032256;28;20208;-61
2023/05/28 06:27:52;;;;;;;1.70;1.60;;;18.50;99.90;;;;;;5031033;28;20255;-61
2023/05/28 06:30:19;;;;;;;1.90;1.80;;;18.60;99.90;;;;;;5031518;28;20312;-62
2023/05/28 06:32:47;;;;;;;2.10;1.90;;;18.60;99.90;;;;;;5031891;28;20284;-62
2023/05/28 06:35:14;;;;;;;1.48;1.40;;;18.50;99.90;;;;;;5032377;28;20209;-61
2023/05/28 06:37:40;;;;;;;1.80;1.70;;;18.40;99.90;;;;;;5026705;28;20295;-62
2023/05/28 06:40:10;;;;;;;1.42;1.40;;;18.50;99.90;;;;;;5029121;28;20224;-62
2023/05/28 06:42:37;;;;;;;1.83;1.73;;;18.60;99.90;;;;;;5027860;28;20201;-62
2023/05/28 06:45:04;;;;;;;2.13;1.90;;;18.90;99.90;;;;;;5031289;28;20204;-62
2023/05/28 06:47:31;;;;;;;1.83;1.73;;;18.90;99.90;;;;;;5028258;28;20201;-62
2023/05/28 06:49:59;;;;;;;1.85;1.75;;;18.90;99.90;;;;;;5031096;28;20686;-61
2023/05/28 06:52:27;;;;;;;2.03;1.85;;;18.70;99.90;;;;;;5033290;28;20553;-61
2023/05/28 06:54:53;;;;;;;1.90;1.67;;;18.70;99.90;;;;;;5032976;28;20201;-62
2023/05/28 06:57:21;;;;;;;1.92;1.83;;;18.70;99.90;;;;;;5031583;28;20208;-62
2023/05/28 06:59:48;;;;;;;1.95;1.85;;;18.70;99.90;;;;;;5030306;28;20593;-62
2023/05/28 07:02:15;;;;;;;1.90;1.80;;;18.70;99.90;;;;;;5029613;28;20282;-64
2023/05/28 07:04:42;;;;;;;1.80;1.70;;;18.70;99.90;;;;;;5031441;28;20201;-61
2023/05/28 07:07:10;;;;;;;1.70;1.60;;;18.90;99.90;;;;;;5032076;28;20214;-60
2023/05/28 07:09:37;;;;;;;1.60;1.50;;;19.00;99.90;;;;;;5031434;28;21054;-61
2023/05/28 07:12:04;;;;;;;2.22;2.03;;;19.00;99.90;;;;;;5032373;28;20211;-61
2023/05/28 07:14:31;;;;;;;1.80;1.70;;;19.10;99.90;;;;;;5033900;28;20208;-61
2023/05/28 07:16:58;;;;;;;2.40;1.70;;;19.20;99.90;;;;;;5036141;28;20208;-62
2023/05/28 07:19:24;;;;;;;1.98;1.85;;;19.20;99.90;;;;;;5035236;28;20671;-62
2023/05/28 07:21:52;;;;;;;1.88;1.75;;;19.30;99.90;;;;;;5034863;28;20215;-61
2023/05/28 07:24:20;;;;;;;1.98;1.88;;;19.30;99.90;;;;;;5037513;28;20288;-64
2023/05/28 07:26:47;;;;;;;1.75;1.65;;;19.30;99.90;;;;;;5033051;28;20211;-62
2023/05/28 07:29:16;;;;;;;1.80;1.70;;;19.40;99.90;;;;;;5032124;28;20225;-62
2023/05/28 07:31:43;;;;;;;2.17;1.98;;;19.50;99.90;;;;;;5040760;28;20223;-61
2023/05/28 07:34:10;;;;;;;2.03;1.90;;;19.60;99.90;;;;;;5042627;28;20236;-62
2023/05/28 07:36:38;;;;;;;2.28;1.90;;;19.60;99.90;;;;;;5043942;28;20211;-62
2023/05/28 07:39:05;;;;;;;1.90;1.80;;;19.70;99.90;;;;;;5041530;28;20232;-62
2023/05/28 07:41:34;;;;;;;1.52;1.42;;;19.70;99.90;;;;;;5041935;28;20216;-62
2023/05/28 07:44:00;;;;;;;1.70;1.60;;;19.90;99.90;;;;;;5037784;28;20212;-63
2023/05/28 07:46:27;;;;;;;1.90;1.80;;;20.00;99.90;;;;;;5042957;28;20200;-63
2023/05/28 07:48:54;;;;;;;1.80;1.70;;;20.10;99.90;;;;;;5040575;28;20319;-63
2023/05/28 07:51:21;;;;;;;2.53;2.08;;;20.20;99.90;;;;;;5038322;28;20209;-63
2023/05/28 07:53:48;;;;;;;1.90;1.80;;;20.30;99.90;;;;;;5038021;28;20295;-64
2023/05/28 07:56:15;;;;;;;1.83;1.73;;;20.30;99.90;;;;;;5036028;28;20215;-61
2023/05/28 07:58:45;;;;;;;2.55;1.88;;;20.30;99.90;;;;;;5033898;28;20561;-61
2023/05/28 08:01:12;;;;;;;1.80;1.70;;;20.40;99.90;;;;;;5037621;28;20307;-62
2023/05/28 08:03:38;;;;;;;1.60;1.50;;;20.40;99.90;;;;;;5038543;28;20208;-61
2023/05/28 08:06:06;;;;;;;1.80;1.70;;;20.50;99.90;;;;;;5033848;28;20208;-62
2023/05/28 08:08:33;;;;;;;1.73;1.63;;;20.50;99.90;;;;;;5033130;28;20664;-63
2023/05/28 08:11:00;;;;;;;2.38;1.80;;;20.60;99.90;;;;;;5033195;28;20292;-62
2023/05/28 08:13:27;;;;;;;1.80;1.70;;;20.70;99.90;;;;;;5034280;28;20222;-62
2023/05/28 08:15:55;;;;;;;1.50;1.40;;;20.80;99.90;;;;;;5035473;28;20236;-61
2023/05/28 08:18:22;;;;;;;1.90;1.80;;;20.90;99.90;;;;;;5036059;28;20220;-61
2023/05/28 08:20:49;;;;;;;1.70;1.60;;;20.90;99.90;;;;;;5032556;28;20200;-61
2023/05/28 08:23:15;;;;;;;1.70;1.60;;;21.00;99.90;;;;;;5041495;28;20299;-61
2023/05/28 08:25:42;;;;;;;1.80;1.70;;;21.00;99.90;;;;;;5048076;28;20228;-62
2023/05/28 08:28:09;;;;;;;2.10;1.90;;;21.20;99.90;;;;;;5045054;28;20212;-61
2023/05/28 08:30:36;;;;;;;1.75;1.65;;;21.30;99.90;;;;;;5036452;28;20247;-64
2023/05/28 08:33:04;;;;;;;2.03;1.90;;;21.40;99.90;;;;;;5037667;28;20235;-63
2023/05/28 08:35:31;;;;;;;2.65;1.70;;;21.50;99.90;;;;;;5037383;28;20215;-63
2023/05/28 08:37:58;;;;;;;1.88;1.67;;;21.60;99.90;;;;;;5047777;28;20302;-64
2023/05/28 08:40:26;;;;;;;1.80;1.70;;;21.70;99.90;;;;;;5044893;28;20634;-61
2023/05/28 08:42:53;;;;;;;2.50;2.25;;;21.80;99.90;;;;;;5046820;28;20231;-62
2023/05/28 08:45:20;;;;;;;2.00;1.73;;;21.80;99.90;;;;;;5044086;28;20300;-61
2023/05/28 08:47:51;;;;;;;1.73;1.63;;;21.70;99.90;;;;;;5037434;28;20209;-63
2023/05/28 08:50:22;;;;;;;1.67;1.58;;;21.70;99.90;;;;;;5036412;28;20730;-62
2023/05/28 08:52:50;;;;;;;1.50;1.40;;;21.60;99.90;;;;;;5036634;28;20199;-62
2023/05/28 08:55:17;;;;;;;1.92;1.83;;;21.80;99.90;;;;;;5035426;28;20235;-63
2023/05/28 08:57:46;;;;;;;1.60;1.50;;;22.00;99.90;;;;;;5035146;28;20321;-62
2023/05/28 09:00:14;;;;;;;1.70;1.60;;;22.00;99.90;;;;;;5034180;28;20233;-63
2023/05/28 09:02:40;;;;;;;1.80;1.70;;;22.20;99.90;;;;;;5034434;28;20211;-63
2023/05/28 09:05:08;;;;;;;1.33;1.33;;;22.40;99.90;;;;;;5034956;28;20219;-63
2023/05/28 09:07:37;;;;;;;1.65;1.55;;;22.40;99.90;;;;;;5034099;28;20208;-63
2023/05/28 09:10:04;;;;;;;1.90;1.80;;;22.40;99.90;;;;;;5033990;28;20575;-64
2023/05/28 09:12:31;;;;;;;1.83;1.73;;;22.50;99.90;;;;;;5034397;28;20704;-63
2023/05/28 09:14:58;;;;;;;2.08;1.88;;;22.50;99.90;;;;;;5034796;28;20215;-63
2023/05/28 09:17:36;;;;;;;1.95;1.85;;;22.60;99.90;;;;;;5038911;28;20208;-62
2023/05/28 09:20:11;;;;;;;2.05;1.95;;;22.80;99.90;;;;;;5039016;28;20691;-63
2023/05/28 09:22:39;;;;;;;1.70;1.60;;;22.70;99.90;;;;;;5040005;28;20698;-64
2023/05/28 09:25:08;;;;;;;1.98;1.88;;;22.70;99.90;;;;;;5040228;28;20223;-63
2023/05/28 09:27:36;;;;;;;2.58;2.47;;;22.70;99.90;;;;;;5042054;28;20695;-62
2023/05/28 09:30:05;;;;;;;1.70;1.60;;;22.40;99.90;;;;;;5038684;28;20690;-63
2023/05/28 09:32:34;;;;;;;1.98;1.85;;;22.40;99.90;;;;;;5035229;28;20657;-63
2023/05/28 09:35:01;;;;;;;2.40;2.20;;;22.60;99.90;;;;;;5034605;28;20221;-62
2023/05/28 09:37:29;;;;;;;1.70;1.60;;;22.70;99.90;;;;;;5034209;28;20212;-62
2023/05/28 09:40:03;;;;;;;2.45;2.00;;;22.70;99.90;;;;;;5039238;28;20239;-65
2023/05/28 09:42:38;;;;;;;1.92;1.75;;;22.60;99.90;;;;;;5035107;28;20208;-63
2023/05/28 09:45:06;;;;;;;2.20;2.10;;;22.60;99.90;;;;;;5034647;28;20232;-63
2023/05/28 09:47:33;;;;;;;1.98;1.88;;;22.80;99.90;;;;;;5040409;28;20205;-63
2023/05/28 09:50:00;;;;;;;1.80;1.70;;;22.90;99.90;;;;;;5033614;28;20315;-62
2023/05/28 09:52:29;;;;;;;1.80;1.70;;;22.90;99.90;;;;;;5034152;28;20291;-63
2023/05/28 09:54:56;;;;;;;4.95;2.50;;;22.90;99.90;;;;;;5037606;28;20679;-63
2023/05/28 09:57:27;;;;;;;1.80;1.70;;;22.80;99.90;;;;;;5036628;28;20242;-62
2023/05/28 09:59:56;;;;;;;1.80;1.70;;;22.90;99.90;;;;;;5033282;28;20235;-62
2023/05/28 10:02:40;;;;;;;1.95;1.85;;;23.10;99.90;;;;;;5033268;28;20318;-63
2023/05/28 10:05:10;;;;;;;2.00;1.90;;;23.30;99.90;;;;;;5033839;28;20327;-61
2023/05/28 10:07:41;;;;;;;1.70;1.60;;;23.30;99.90;;;;;;5033829;28;20201;-62
2023/05/28 10:10:10;;;;;;;2.20;2.00;;;23.20;99.90;;;;;;5033177;28;20592;-61
2023/05/28 10:12:39;;;;;;;1.90;1.80;;;23.20;99.90;;;;;;5033535;28;20208;-65
2023/05/28 10:15:08;;;;;;;2.00;1.80;;;23.30;99.90;;;;;;5033713;28;20565;-61
2023/05/28 10:17:35;;;;;;;2.03;1.73;;;23.30;99.90;;;;;;5034818;28;20208;-62
2023/05/28 10:20:04;;;;;;;5.00;4.75;;;23.40;99.90;;;;;;5032619;28;20236;-63
2023/05/28 10:22:31;;;;;;;2.30;1.90;;;23.50;99.90;;;;;;5033695;28;20205;-62
2023/05/28 10:25:00;;;;;;;2.85;2.30;;;23.60;99.90;;;;;;5033349;28;20288;-63
2023/05/28 10:27:30;;;;;;;2.20;1.60;;;23.80;99.90;;;;;;5033158;28;20300;-62
2023/05/28 10:30:03;;;;;;;1.90;1.80;;;23.80;99.90;;;;;;5032578;28;20225;-63
2023/05/28 10:32:30;;;;;;;2.20;2.10;;;23.90;99.90;;;;;;5032849;28;20220;-63
2023/05/28 10:35:02;;;;;;;2.67;2.13;;;24.00;99.90;;;;;;5033129;28;20197;-62
2023/05/28 10:37:29;;;;;;;3.85;3.55;;;24.00;99.90;;;;;;5032854;28;20702;-63
2023/05/28 10:39:56;;;;;;;2.50;1.77;;;23.90;99.90;;;;;;5031727;28;20232;-63
2023/05/28 10:42:23;;;;;;;2.17;1.98;;;24.00;99.90;;;;;;5032675;28;20212;-63
2023/05/28 10:47:52;;;;;;;2.20;1.80;;;24.00;99.90;;;;;;5088363;27;20581;-64
2023/05/28 10:50:20;;;;;;;1.90;1.80;;;24.10;99.90;;;;;;5087736;28;20313;-63
2023/05/28 10:53:07;;;;;;;2.00;1.90;;;24.30;99.90;;;;;;5088858;28;20213;-63
2023/05/28 10:55:50;;;;;;;1.85;1.75;;;24.50;99.90;;;;;;5090030;28;20213;-62
2023/05/28 10:58:28;;;;;;;2.25;2.15;;;24.40;99.90;;;;;;5093441;28;20202;-62
2023/05/28 11:01:02;;;;;;;1.80;1.70;;;24.60;99.90;;;;;;5096450;28;20240;-64
2023/05/28 11:03:44;;;;;;;2.28;1.88;;;24.80;99.90;;;;;;5092379;28;20191;-63
2023/05/28 11:06:11;;;;;;;1.70;1.60;;;25.00;99.90;;;;;;5089244;28;20270;-62
2023/05/28 11:08:44;;;;;;;2.60;1.63;;;24.90;99.90;;;;;;5088549;28;20203;-63
2023/05/28 11:11:15;;;;;;;1.60;1.50;;;24.90;99.90;;;;;;5087719;28;20195;-63
2023/05/28 11:13:43;;;;;;;1.70;1.60;;;25.00;99.90;;;;;;5088330;28;20206;-63
2023/05/28 11:16:11;;;;;;;1.65;1.55;;;24.90;99.90;;;;;;5088419;28;20203;-63
2023/05/28 11:18:38;;;;;;;1.73;1.63;;;25.00;99.90;;;;;;5088513;28;20203;-63
2023/05/28 11:21:08;;;;;;;1.73;1.63;;;25.10;99.90;;;;;;5087705;28;20748;-64
2023/05/28 11:23:37;;;;;;;1.70;1.60;;;25.30;99.90;;;;;;5088406;28;20746;-62
2023/05/28 11:26:04;;;;;;;1.70;1.60;;;25.40;99.90;;;;;;5088542;28;20713;-64
2023/05/28 11:28:31;;;;;;;2.00;1.90;;;25.40;99.90;;;;;;5088650;28;20293;-63
2023/05/28 11:30:59;;;;;;;1.60;1.50;;;25.40;99.90;;;;;;5088145;28;20199;-61
2023/05/28 11:33:29;;;;;;;1.90;1.80;;;25.30;99.90;;;;;;5087856;28;20693;-63
2023/05/28 11:36:01;;;;;;;1.83;1.73;;;25.40;99.90;;;;;;5088412;28;20241;-63
2023/05/28 11:38:29;;;;;;;1.60;1.50;;;25.40;99.90;;;;;;5088449;28;20207;-64
2023/05/28 11:41:00;;;;;;;2.58;1.70;;;25.30;99.90;;;;;;5087756;28;20207;-63
2023/05/28 11:43:27;;;;;;;1.70;1.60;;;25.30;99.90;;;;;;5088418;28;20616;-64
2023/05/28 11:45:58;;;;;;;2.55;1.83;;;25.40;99.90;;;;;;5087856;28;20571;-62
2023/05/28 11:48:26;;;;;;;1.70;1.60;;;25.60;99.90;;;;;;5089214;28;20183;-62
2023/05/28 11:50:58;;;;;;;1.73;1.63;;;25.60;99.90;;;;;;5089304;28;20253;-62
2023/05/28 11:53:25;;;;;;;1.65;1.55;;;25.50;99.90;;;;;;5091593;28;20195;-63
2023/05/28 11:55:53;;;;;;;1.77;1.67;;;25.70;99.90;;;;;;5090568;28;20199;-63
2023/05/28 11:58:30;;;;;;;1.90;1.80;;;25.80;99.90;;;;;;5079704;28;20210;-62
2023/05/28 12:00:57;;;;;;;1.50;1.40;;;25.80;99.90;;;;;;5075175;28;20207;-62
2023/05/28 12:03:26;;;;;;;3.85;3.65;;;25.80;99.90;;;;;;5075387;28;20209;-64
2023/05/28 12:05:53;;;;;;;2.60;1.77;;;25.90;99.90;;;;;;5074318;28;20214;-62
2023/05/28 12:08:20;;;;;;;2.08;1.98;;;26.00;99.90;;;;;;5076108;28;20203;-65
2023/05/28 12:10:47;;;;;;;2.42;2.30;;;25.90;99.90;;;;;;5075417;28;20234;-62
2023/05/28 12:13:16;;;;;;;2.25;1.85;;;25.90;99.90;;;;;;5075446;28;20211;-62
2023/05/28 12:15:43;;;;;;;9.98;2.08;;;25.90;99.90;;;;;;5076896;28;20210;-62
2023/05/28 12:18:11;;;;;;;1.98;1.80;;;25.90;99.90;;;;;;5074998;28;20269;-62
2023/05/28 12:20:40;;;;;;;1.63;1.52;;;25.90;99.90;;;;;;5074218;28;20357;-64
2023/05/28 12:23:09;;;;;;;1.70;1.60;;;26.00;99.90;;;;;;5074853;28;20257;-63
2023/05/28 12:25:50;;;;;;;1.90;1.80;;;26.20;99.90;;;;;;5075753;28;20235;-62
2023/05/28 12:28:19;;;;;;;1.60;1.50;;;26.20;99.90;;;;;;5075355;28;20222;-64
2023/05/28 12:30:50;;;;;;;1.50;1.40;;;26.20;99.90;;;;;;5074107;28;20317;-63
2023/05/28 12:33:17;;;;;;;2.03;1.92;;;26.20;99.90;;;;;;5076021;28;20192;-63
2023/05/28 12:35:44;;;;;;;4.78;1.88;;;26.40;99.90;;;;;;5076413;28;20198;-62
2023/05/28 12:38:11;;;;;;;1.60;1.50;;;26.50;99.90;;;;;;5076343;28;20241;-64
2023/05/28 12:40:38;;;;;;;1.63;1.52;;;26.50;99.90;;;;;;5075207;28;20223;-63
2023/05/28 12:43:05;;;;;;;1.73;1.63;;;26.60;99.90;;;;;;5075673;28;20302;-64
2023/05/28 12:45:34;;;;;;;1.77;1.67;;;26.60;99.90;;;;;;5074537;28;20794;-63
2023/05/28 12:48:01;;;;;;;1.90;1.80;;;26.50;99.90;;;;;;5074451;28;20763;-64
2023/05/28 12:50:27;;;;;;;2.00;1.80;;;26.70;99.90;;;;;;5073275;28;20252;-63
2023/05/28 12:52:54;;;;;;;1.98;1.88;;;26.80;99.90;;;;;;5059586;28;20195;-63
2023/05/28 12:55:21;;;;;;;2.00;1.90;;;26.90;99.90;;;;;;5074706;28;20295;-62